createdAt,value
2017-10-04T00:01:20.409Z,3.33
2017-10-04T00:03:47.693Z,3.60
2017-10-04T00:06:14.973Z,2.97
2017-10-04T00:08:42.257Z,3.33
2017-10-04T00:11:10.015Z,3.00
2017-10-04T00:13:38.628Z,3.83
2017-10-04T00:16:06.418Z,3.03
2017-10-04T00:18:34.225Z,3.30
2017-10-04T00:21:02.412Z,3.00
2017-10-04T00:23:30.208Z,3.50
2017-10-04T00:25:57.980Z,3.30
2017-10-04T00:28:25.720Z,3.63
2017-10-04T00:30:53.512Z,3.10
2017-10-04T00:33:21.470Z,3.27
2017-10-04T00:35:49.225Z,2.80
2017-10-04T00:38:17.045Z,2.97
2017-10-04T00:40:44.847Z,3.50
2017-10-04T00:43:12.549Z,2.40
2017-10-04T00:45:40.428Z,3.70
2017-10-04T00:48:08.175Z,2.67
2017-10-04T00:50:35.977Z,2.80
2017-10-04T00:53:03.686Z,2.30
2017-10-04T00:55:31.498Z,2.50
2017-10-04T00:57:59.253Z,2.67
2017-10-04T01:00:27.149Z,3.03
2017-10-04T01:02:54.939Z,2.63
2017-10-04T01:05:22.845Z,2.43
2017-10-04T01:07:50.629Z,2.83
2017-10-04T01:10:18.334Z,2.70
2017-10-04T01:12:46.189Z,3.20
2017-10-04T01:15:13.988Z,2.53
2017-10-04T01:17:41.894Z,2.83
2017-10-04T01:20:10.887Z,2.83
2017-10-04T01:22:38.820Z,2.67
2017-10-04T01:25:07.459Z,2.63
2017-10-04T01:27:35.207Z,2.80
2017-10-04T01:30:02.983Z,2.83
2017-10-04T01:32:30.665Z,2.57
2017-10-04T01:34:58.643Z,2.97
2017-10-04T01:37:26.730Z,3.00
2017-10-04T01:39:54.484Z,2.70
2017-10-04T01:42:22.169Z,2.60
2017-10-04T01:44:49.850Z,2.57
2017-10-04T01:47:17.596Z,3.57
2017-10-04T01:49:45.430Z,2.63
2017-10-04T01:52:13.229Z,2.60
2017-10-04T01:54:40.635Z,2.57
2017-10-04T01:57:07.910Z,3.23
2017-10-04T01:59:35.212Z,2.73
2017-10-04T02:02:02.483Z,3.13
2017-10-04T02:04:29.795Z,3.33
2017-10-04T02:06:57.065Z,2.77
2017-10-04T02:09:24.354Z,3.10
2017-10-04T02:11:51.682Z,2.80
2017-10-04T02:14:18.985Z,3.33
2017-10-04T02:16:46.274Z,2.80
2017-10-04T02:19:13.563Z,2.97
2017-10-04T02:21:40.860Z,2.70
2017-10-04T02:24:08.153Z,3.63
2017-10-04T02:26:35.437Z,2.80
2017-10-04T02:29:02.754Z,3.90
2017-10-04T02:31:30.046Z,3.73
2017-10-04T02:33:57.381Z,3.00
2017-10-04T02:36:24.683Z,4.20
2017-10-04T02:38:51.985Z,3.30
2017-10-04T02:41:19.289Z,3.43
2017-10-04T02:43:46.571Z,2.93
2017-10-04T02:46:13.888Z,3.50
2017-10-04T02:48:41.171Z,3.33
2017-10-04T02:51:08.452Z,3.53
2017-10-04T02:53:35.772Z,3.67
2017-10-04T02:56:03.046Z,3.50
2017-10-04T02:58:30.346Z,3.40
2017-10-04T03:00:57.653Z,3.50
2017-10-04T03:03:24.973Z,3.77
2017-10-04T03:05:52.248Z,3.43
2017-10-04T03:08:19.536Z,3.30
2017-10-04T03:10:46.824Z,3.83
2017-10-04T03:13:14.152Z,3.60
2017-10-04T03:15:41.455Z,3.77
2017-10-04T03:18:08.780Z,3.97
2017-10-04T03:20:36.076Z,3.60
2017-10-04T03:23:03.358Z,4.00
2017-10-04T03:25:30.711Z,4.03
2017-10-04T03:27:58.000Z,4.07
2017-10-04T03:30:25.305Z,4.93
2017-10-04T03:32:52.614Z,4.50
2017-10-04T03:35:19.914Z,4.10
2017-10-04T03:37:47.208Z,4.50
2017-10-04T03:40:14.579Z,4.00
2017-10-04T03:42:41.870Z,4.70
2017-10-04T03:45:09.187Z,4.73
2017-10-04T03:47:36.451Z,4.50
2017-10-04T03:50:03.765Z,4.73
2017-10-04T03:52:31.060Z,4.77
2017-10-04T03:54:58.326Z,5.10
2017-10-04T03:57:25.618Z,4.90
2017-10-04T03:59:52.910Z,5.67
2017-10-04T04:02:20.235Z,5.43
2017-10-04T04:04:47.498Z,4.80
2017-10-04T04:07:14.819Z,5.67
2017-10-04T04:09:42.137Z,5.07
2017-10-04T04:12:09.436Z,6.40
2017-10-04T04:14:36.713Z,5.00
2017-10-04T04:17:03.998Z,5.17
2017-10-04T04:19:31.285Z,5.27
2017-10-04T04:21:58.572Z,5.77
2017-10-04T04:24:25.885Z,5.47
2017-10-04T04:26:54.045Z,5.33
2017-10-04T04:29:21.361Z,5.17
2017-10-04T04:31:48.655Z,6.70
2017-10-04T04:34:15.936Z,5.07
2017-10-04T04:36:43.195Z,4.70
2017-10-04T04:39:10.506Z,5.30
2017-10-04T04:41:37.828Z,5.83
2017-10-04T04:44:05.099Z,5.70
2017-10-04T04:46:32.388Z,5.60
2017-10-04T04:48:59.660Z,6.00
2017-10-04T04:51:26.980Z,6.53
2017-10-04T04:53:54.248Z,5.77
2017-10-04T04:56:21.534Z,5.93
2017-10-04T04:58:48.826Z,6.63
2017-10-04T05:01:16.155Z,6.30
2017-10-04T05:03:43.434Z,5.77
2017-10-04T05:06:10.683Z,6.50
2017-10-04T05:08:37.974Z,6.27
2017-10-04T05:11:05.255Z,6.17
2017-10-04T05:13:32.544Z,6.13
2017-10-04T05:15:59.819Z,5.90
2017-10-04T05:18:27.156Z,5.77
2017-10-04T05:20:54.453Z,6.50
2017-10-04T05:23:21.725Z,5.40
2017-10-04T05:25:49.057Z,4.80
2017-10-04T05:28:16.341Z,7.00
2017-10-04T05:30:43.632Z,6.17
2017-10-04T05:33:10.937Z,6.40
2017-10-04T05:35:38.202Z,5.83
2017-10-04T05:38:06.204Z,6.67
2017-10-04T05:40:33.520Z,6.53
2017-10-04T05:43:00.812Z,6.23
2017-10-04T05:45:28.136Z,6.90
2017-10-04T05:47:55.458Z,5.10
2017-10-04T05:50:22.735Z,6.17
2017-10-04T05:52:50.053Z,5.60
2017-10-04T05:55:17.334Z,5.50
2017-10-04T05:57:44.623Z,5.47
2017-10-04T06:00:11.939Z,5.33
2017-10-04T06:02:39.244Z,5.53
2017-10-04T06:05:06.524Z,5.30
2017-10-04T06:07:33.798Z,5.40
2017-10-04T06:10:01.087Z,5.63
2017-10-04T06:12:28.388Z,4.80
2017-10-04T06:14:55.659Z,5.50
2017-10-04T06:17:22.965Z,4.60
2017-10-04T06:19:50.295Z,5.17
2017-10-04T06:22:17.560Z,4.90
2017-10-04T06:24:44.824Z,5.00
2017-10-04T06:27:12.146Z,4.73
2017-10-04T06:29:39.417Z,5.00
2017-10-04T06:32:06.683Z,4.70
2017-10-04T06:34:33.975Z,4.57
2017-10-04T06:37:01.242Z,4.33
2017-10-04T06:39:28.538Z,4.90
2017-10-04T06:41:55.803Z,4.40
2017-10-04T06:44:23.098Z,4.07
2017-10-04T06:46:50.363Z,4.03
2017-10-04T06:49:17.626Z,3.40
2017-10-04T06:51:44.918Z,3.50
2017-10-04T06:54:12.205Z,3.77
2017-10-04T06:56:39.499Z,3.57
2017-10-04T06:59:06.764Z,3.43
2017-10-04T07:01:34.063Z,3.10
2017-10-04T07:04:01.330Z,3.60
2017-10-04T07:06:28.595Z,3.53
2017-10-04T07:08:55.886Z,3.07
2017-10-04T07:11:23.138Z,3.10
2017-10-04T07:13:50.440Z,3.00
2017-10-04T07:16:17.739Z,3.50
2017-10-04T07:18:45.040Z,3.10
2017-10-04T07:21:12.307Z,3.40
2017-10-04T07:23:39.571Z,3.40
2017-10-04T07:26:06.861Z,3.03
2017-10-04T07:28:34.144Z,3.77
2017-10-04T07:31:01.412Z,3.20
2017-10-04T07:33:28.712Z,3.10
2017-10-04T07:35:55.966Z,3.40
2017-10-04T07:38:23.235Z,3.80
2017-10-04T07:40:50.537Z,3.50
2017-10-04T07:43:17.791Z,2.97
2017-10-04T07:45:45.092Z,3.40
2017-10-04T07:48:12.359Z,3.43
2017-10-04T07:50:39.627Z,2.97
2017-10-04T07:53:06.932Z,3.10
2017-10-04T07:55:34.261Z,3.20
2017-10-04T07:58:01.587Z,3.17
2017-10-04T08:00:28.855Z,2.67
2017-10-04T08:02:56.143Z,3.30
2017-10-04T08:05:23.448Z,3.10
2017-10-04T08:07:50.716Z,2.90
2017-10-04T08:10:17.978Z,2.83
2017-10-04T08:12:45.267Z,3.10
2017-10-04T08:15:12.548Z,2.87
2017-10-04T08:17:39.862Z,2.50
2017-10-04T08:20:07.135Z,2.33
2017-10-04T08:22:34.415Z,2.63
2017-10-04T08:25:01.723Z,2.90
2017-10-04T08:27:29.540Z,3.00
2017-10-04T08:29:56.922Z,2.73
2017-10-04T09:16:04.918Z,2.80
2017-10-04T09:18:32.179Z,2.50
2017-10-04T09:20:59.476Z,2.57
2017-10-04T09:23:26.771Z,2.13
2017-10-04T09:25:54.026Z,2.50
2017-10-04T09:28:21.341Z,3.73
2017-10-04T09:30:48.646Z,3.73
2017-10-04T09:33:15.911Z,2.90
2017-10-04T09:35:43.214Z,2.63
2017-10-04T09:38:10.479Z,2.27
2017-10-04T09:40:37.767Z,4.10
2017-10-04T09:43:05.064Z,2.33
2017-10-04T09:45:32.364Z,2.73
2017-10-04T09:47:59.628Z,3.03
2017-10-04T09:50:26.914Z,3.30
2017-10-04T09:52:54.217Z,2.73
2017-10-04T09:55:21.479Z,2.27
2017-10-04T09:57:48.733Z,2.30
2017-10-04T10:00:16.050Z,2.30
2017-10-04T10:02:43.317Z,2.50
2017-10-04T10:05:10.599Z,2.30
2017-10-04T10:07:37.882Z,2.20
2017-10-04T10:10:05.148Z,2.03
2017-10-04T10:12:32.433Z,2.57
2017-10-04T10:14:59.686Z,2.20
2017-10-04T10:17:26.970Z,2.50
2017-10-04T10:19:54.268Z,2.80
2017-10-04T10:22:21.548Z,2.50
2017-10-04T10:24:48.806Z,2.30
2017-10-04T10:27:16.083Z,2.63
2017-10-04T10:29:43.379Z,2.47
2017-10-04T10:32:10.643Z,2.60
2017-10-04T10:34:37.944Z,2.17
2017-10-04T10:37:05.236Z,2.00
2017-10-04T10:39:32.499Z,2.63
2017-10-04T10:41:59.759Z,2.70
2017-10-04T10:44:27.056Z,2.30
2017-10-04T10:46:54.331Z,2.67
2017-10-04T10:49:21.615Z,2.23
2017-10-04T10:51:48.919Z,2.70
2017-10-04T10:54:16.248Z,2.70
2017-10-04T10:56:43.554Z,2.50
2017-10-04T10:59:10.840Z,2.10
2017-10-04T11:01:38.094Z,2.10
2017-10-04T11:04:05.401Z,2.20
2017-10-04T11:06:32.664Z,2.37
2017-10-04T11:08:59.922Z,2.73
2017-10-04T11:11:27.229Z,2.87
2017-10-04T11:13:54.482Z,2.53
2017-10-04T11:16:21.821Z,2.13
2017-10-04T11:18:49.115Z,2.47
2017-10-04T11:21:17.107Z,2.40
2017-10-04T11:23:44.371Z,2.50
2017-10-04T11:26:11.703Z,2.50
2017-10-04T11:28:38.988Z,1.93
2017-10-04T11:31:06.354Z,2.40
2017-10-04T11:33:33.703Z,3.20
2017-10-04T11:36:00.985Z,2.00
2017-10-04T11:38:28.249Z,2.13
2017-10-04T11:40:55.531Z,2.33
2017-10-04T11:43:22.827Z,2.80
2017-10-04T11:45:50.092Z,2.70
2017-10-04T11:48:17.391Z,2.77
2017-10-04T11:50:44.699Z,2.43
2017-10-04T11:53:12.064Z,2.40
2017-10-04T11:55:39.360Z,2.93
2017-10-04T11:58:06.690Z,3.10
2017-10-04T12:00:33.983Z,3.10
2017-10-04T12:03:01.301Z,2.43
2017-10-04T12:05:28.568Z,2.87
2017-10-04T12:07:55.862Z,2.40
2017-10-04T12:10:23.175Z,2.60
2017-10-04T12:12:50.480Z,2.70
2017-10-04T12:15:17.776Z,2.20
2017-10-04T12:17:45.067Z,2.97
2017-10-04T12:20:12.372Z,3.13
2017-10-04T12:22:39.671Z,3.17
2017-10-04T12:25:07.000Z,2.60
2017-10-04T12:27:34.262Z,3.07
2017-10-04T12:30:01.522Z,2.60
2017-10-04T12:32:28.869Z,2.73
2017-10-04T12:34:56.135Z,2.67
2017-10-04T12:37:23.553Z,3.00
2017-10-04T12:39:50.883Z,3.00
2017-10-04T12:42:18.163Z,2.47
2017-10-04T12:44:45.458Z,2.83
2017-10-04T12:47:13.271Z,2.60
2017-10-04T12:49:40.561Z,2.63
2017-10-04T12:52:07.849Z,2.90
2017-10-04T12:54:35.138Z,3.10
2017-10-04T12:57:02.581Z,2.73
2017-10-04T12:59:29.898Z,2.40
2017-10-04T13:01:57.166Z,2.60
2017-10-04T13:04:24.556Z,2.30
2017-10-04T13:06:51.810Z,2.90
2017-10-04T13:09:19.095Z,1.97
2017-10-04T13:11:46.415Z,2.67
2017-10-04T13:14:13.758Z,2.80
2017-10-04T13:16:41.016Z,2.20
2017-10-04T13:19:08.310Z,2.97
2017-10-04T13:21:35.721Z,2.60
2017-10-04T13:24:03.007Z,2.80
2017-10-04T13:26:30.342Z,2.63
2017-10-04T13:28:57.647Z,2.80
2017-10-04T13:31:24.914Z,2.63
2017-10-04T13:33:52.213Z,2.90
2017-10-04T13:36:19.497Z,3.07
2017-10-04T13:38:46.842Z,3.00
2017-10-04T13:41:14.135Z,2.97
2017-10-04T13:43:41.440Z,2.77
2017-10-04T13:46:08.811Z,3.00
2017-10-04T13:48:36.078Z,2.57
2017-10-04T13:51:03.363Z,2.30
2017-10-04T13:53:30.744Z,2.37
2017-10-04T13:55:58.041Z,3.07
2017-10-04T13:58:25.310Z,3.23
2017-10-04T14:00:52.605Z,3.00
2017-10-04T14:03:19.861Z,3.27
2017-10-04T14:05:47.215Z,3.03
2017-10-04T14:08:14.592Z,2.60
2017-10-04T14:10:41.900Z,2.53
2017-10-04T14:13:09.222Z,2.90
2017-10-04T14:15:36.517Z,2.47
2017-10-04T14:18:03.851Z,3.20
2017-10-04T14:20:31.199Z,2.63
2017-10-04T14:22:58.474Z,3.30
2017-10-04T14:25:25.739Z,3.37
2017-10-04T14:27:53.032Z,2.80
2017-10-04T14:30:20.336Z,2.80
2017-10-04T14:32:47.735Z,2.90
2017-10-04T14:35:15.032Z,2.90
2017-10-04T14:37:42.410Z,3.17
2017-10-04T14:40:09.722Z,3.60
2017-10-04T14:42:37.057Z,2.50
2017-10-04T14:45:04.319Z,3.43
2017-10-04T14:47:31.627Z,2.87
2017-10-04T14:49:58.918Z,2.47
2017-10-04T14:52:26.181Z,3.30
2017-10-04T14:54:53.493Z,3.53
2017-10-04T14:57:20.947Z,2.97
2017-10-04T14:59:48.230Z,2.40
2017-10-04T15:02:15.503Z,2.80
2017-10-04T15:04:42.814Z,2.50
2017-10-04T15:07:10.082Z,2.67
2017-10-04T15:09:37.368Z,2.80
2017-10-04T15:12:04.663Z,3.10
2017-10-04T15:14:31.987Z,2.90
2017-10-04T15:16:59.263Z,2.53
2017-10-04T15:19:26.588Z,3.40
2017-10-04T15:21:53.861Z,2.67
2017-10-04T15:24:21.193Z,3.07
2017-10-04T15:26:48.603Z,2.80
2017-10-04T15:29:15.880Z,3.00
2017-10-04T15:31:43.190Z,3.17
2017-10-04T15:34:10.493Z,2.50
2017-10-04T15:36:37.811Z,2.87
2017-10-04T15:39:05.104Z,2.30
2017-10-04T15:41:32.384Z,2.90
2017-10-04T15:43:59.670Z,2.30
2017-10-04T15:46:27.259Z,2.63
2017-10-04T15:48:55.168Z,2.90
2017-10-04T15:51:22.819Z,2.77
2017-10-04T15:53:50.618Z,2.70
2017-10-04T15:56:18.240Z,2.40
2017-10-04T15:58:45.947Z,3.07
2017-10-04T16:01:13.780Z,3.07
2017-10-04T16:03:41.160Z,2.87
2017-10-04T16:06:08.430Z,2.80
2017-10-04T16:08:35.723Z,3.50
2017-10-04T16:11:02.988Z,2.67
2017-10-04T16:13:30.275Z,2.47
2017-10-04T16:15:57.548Z,3.07
2017-10-04T16:18:24.841Z,2.50
2017-10-04T16:20:52.119Z,3.50
2017-10-04T16:23:20.003Z,2.60
2017-10-04T16:25:47.779Z,2.53
2017-10-04T16:28:15.442Z,2.80
2017-10-04T16:30:43.197Z,3.03
2017-10-04T16:33:10.879Z,3.00
2017-10-04T16:35:38.600Z,3.30
2017-10-04T16:38:06.301Z,2.90
2017-10-04T16:40:33.947Z,2.77
2017-10-04T16:43:01.608Z,3.03
2017-10-04T16:45:29.261Z,3.07
2017-10-04T16:47:56.945Z,3.30
2017-10-04T16:50:24.676Z,3.50
2017-10-04T16:52:52.294Z,3.07
2017-10-04T16:55:19.983Z,3.03
2017-10-04T16:57:47.617Z,3.37
2017-10-04T17:00:15.115Z,3.70
2017-10-04T17:02:42.384Z,3.03
2017-10-04T17:05:09.675Z,3.03
2017-10-04T17:07:36.947Z,3.07
2017-10-04T17:10:05.165Z,3.00
2017-10-04T17:12:32.475Z,3.00
2017-10-04T17:14:59.775Z,3.50
2017-10-04T17:17:27.090Z,3.00
2017-10-04T17:19:54.790Z,3.10
2017-10-04T17:22:22.074Z,2.90
2017-10-04T17:24:49.396Z,2.77
2017-10-04T17:27:16.671Z,2.90
2017-10-04T17:29:43.961Z,3.30
2017-10-04T17:32:11.447Z,3.23
2017-10-04T17:34:39.216Z,3.00
2017-10-04T17:37:06.587Z,3.40
2017-10-04T17:39:34.180Z,3.00
2017-10-04T17:42:01.905Z,3.47
2017-10-04T17:44:29.796Z,2.90
2017-10-04T17:46:57.663Z,3.00
2017-10-04T17:49:25.442Z,3.17
2017-10-04T17:51:53.066Z,3.00
2017-10-04T17:54:20.860Z,3.30
2017-10-04T17:56:48.501Z,3.00
2017-10-04T17:59:15.869Z,2.90
2017-10-04T18:01:43.236Z,3.30
2017-10-04T18:04:10.711Z,3.13
2017-10-04T18:06:38.077Z,3.20
2017-10-04T18:09:05.452Z,3.33
2017-10-04T18:11:32.802Z,2.53
2017-10-04T18:14:00.154Z,3.00
2017-10-04T18:16:27.450Z,2.63
2017-10-04T18:18:54.719Z,2.40
2017-10-04T18:21:22.011Z,3.47
2017-10-04T18:23:49.890Z,3.33
2017-10-04T18:26:17.612Z,3.83
2017-10-04T18:28:45.358Z,3.70
2017-10-04T18:31:13.236Z,3.47
2017-10-04T18:33:40.876Z,2.97
2017-10-04T18:36:08.589Z,2.83
2017-10-04T18:38:36.254Z,3.83
2017-10-04T18:41:03.614Z,2.60
2017-10-04T18:43:30.908Z,3.67
2017-10-04T18:45:58.198Z,2.90
2017-10-04T18:48:25.523Z,2.90
2017-10-04T18:50:53.007Z,3.13
2017-10-04T18:53:20.277Z,2.70
2017-10-04T18:55:47.719Z,2.90
2017-10-04T18:58:15.457Z,2.73
2017-10-04T19:00:43.385Z,3.00
2017-10-04T19:03:11.050Z,2.80
2017-10-04T19:05:38.737Z,3.07
2017-10-04T19:08:06.311Z,2.80
2017-10-04T19:10:33.595Z,3.37
2017-10-04T19:13:00.879Z,3.07
2017-10-04T19:15:28.302Z,4.00
2017-10-04T19:17:55.547Z,3.50
2017-10-04T19:20:23.136Z,3.40
2017-10-04T19:22:51.294Z,3.57
2017-10-04T19:25:18.973Z,2.90
2017-10-04T19:27:46.699Z,3.00
2017-10-04T19:30:14.359Z,3.60
2017-10-04T19:32:42.082Z,3.00
2017-10-04T19:35:09.706Z,4.03
2017-10-04T19:37:37.305Z,3.27
2017-10-04T19:40:04.657Z,3.13
2017-10-04T19:42:31.946Z,3.90
2017-10-04T19:44:59.207Z,3.27
2017-10-04T19:47:26.513Z,3.27
2017-10-04T19:49:53.796Z,2.80
2017-10-04T19:52:21.057Z,3.10
2017-10-04T19:54:48.351Z,3.13
2017-10-04T19:57:15.619Z,3.53
2017-10-04T19:59:42.913Z,4.20
2017-10-04T20:02:10.475Z,3.13
2017-10-04T20:04:38.362Z,3.40
2017-10-04T20:07:06.200Z,3.23
2017-10-04T20:09:33.858Z,2.90
2017-10-04T20:12:01.653Z,3.00
2017-10-04T20:14:29.422Z,3.67
2017-10-04T20:16:56.809Z,3.03
2017-10-04T20:19:24.129Z,3.30
2017-10-04T20:21:51.398Z,4.00
2017-10-04T20:24:18.716Z,3.60
2017-10-04T20:26:45.979Z,3.23
2017-10-04T20:29:13.296Z,3.77
2017-10-04T20:31:40.609Z,4.17
2017-10-04T20:34:07.871Z,3.30
2017-10-04T20:36:35.174Z,2.80
2017-10-04T20:39:02.446Z,3.67
2017-10-04T20:41:30.134Z,3.27
2017-10-04T20:43:57.443Z,3.37
2017-10-04T20:46:24.736Z,3.33
2017-10-04T20:48:52.050Z,2.63
2017-10-04T20:51:19.375Z,3.10
2017-10-04T20:53:46.715Z,3.63
2017-10-04T20:56:14.004Z,3.70
2017-10-04T20:58:41.294Z,3.33
2017-10-04T21:01:08.590Z,3.90
2017-10-04T21:03:35.911Z,2.90
2017-10-04T21:06:03.187Z,3.47
2017-10-04T21:08:30.461Z,2.70
2017-10-04T21:10:57.760Z,3.57
2017-10-04T21:13:25.019Z,3.17
2017-10-04T21:15:52.310Z,3.53
2017-10-04T21:18:19.586Z,3.37
2017-10-04T21:20:46.886Z,3.97
2017-10-04T21:23:14.155Z,3.27
2017-10-04T21:25:41.488Z,3.20
2017-10-04T21:28:08.824Z,2.80
2017-10-04T21:30:36.119Z,3.17
2017-10-04T21:33:03.407Z,3.90
2017-10-04T21:35:30.684Z,2.67
2017-10-04T21:37:57.982Z,2.80
2017-10-04T21:40:25.251Z,3.50
2017-10-04T21:42:52.559Z,4.00
2017-10-04T21:45:19.823Z,3.10
2017-10-04T21:47:47.129Z,3.60
2017-10-04T21:50:14.475Z,3.23
2017-10-04T21:52:41.736Z,3.23
2017-10-04T21:55:09.046Z,3.53
2017-10-04T21:57:36.339Z,3.10
2017-10-04T22:00:03.615Z,3.00
2017-10-04T22:02:30.941Z,3.77
2017-10-04T22:04:58.211Z,3.07
2017-10-04T22:07:25.501Z,3.33
2017-10-04T22:09:52.827Z,2.97
2017-10-04T22:12:20.089Z,2.97
2017-10-04T22:14:47.364Z,3.80
2017-10-04T22:17:14.655Z,3.50
2017-10-04T22:19:41.970Z,3.10
2017-10-04T22:22:09.228Z,3.10
2017-10-04T22:24:36.498Z,3.37
2017-10-04T22:27:03.819Z,3.30
2017-10-04T22:29:31.132Z,3.20
2017-10-04T22:31:58.430Z,2.97
2017-10-04T22:34:25.689Z,3.43
2017-10-04T22:36:53.006Z,2.70
2017-10-04T22:39:20.304Z,2.90
2017-10-04T22:41:47.571Z,3.10
2017-10-04T22:44:14.864Z,2.63
2017-10-04T22:46:42.133Z,3.10
2017-10-04T22:49:09.448Z,3.37
2017-10-04T22:51:36.732Z,3.23
2017-10-04T22:54:04.018Z,3.00
2017-10-04T22:56:31.315Z,3.43
2017-10-04T22:58:58.591Z,3.13
2017-10-04T23:01:25.908Z,3.60
2017-10-04T23:03:53.219Z,3.43
2017-10-04T23:06:20.497Z,2.70
2017-10-04T23:08:47.772Z,3.70
2017-10-04T23:11:15.067Z,2.57
2017-10-04T23:13:42.352Z,3.27
2017-10-04T23:16:09.623Z,2.80
2017-10-04T23:18:36.930Z,2.83
2017-10-04T23:21:04.211Z,3.00
2017-10-04T23:23:31.488Z,3.00
2017-10-04T23:25:58.795Z,2.40
2017-10-04T23:28:26.083Z,3.57
2017-10-04T23:30:54.078Z,3.13
2017-10-04T23:33:21.399Z,2.90
2017-10-04T23:35:49.641Z,3.13
2017-10-04T23:38:16.909Z,3.77
2017-10-04T23:40:44.207Z,2.63
2017-10-04T23:43:11.532Z,3.27
2017-10-04T23:45:38.811Z,3.63
2017-10-04T23:48:06.103Z,3.33
2017-10-04T23:50:33.415Z,4.37
2017-10-04T23:53:00.688Z,3.07
2017-10-04T23:55:27.979Z,3.80
2017-10-04T23:57:55.298Z,3.63
